Time;durP1;ratioP1;P1;durP2;ratioP2;P2;SDS_P1;SDS_P2;PMS_P1;PMS_P2;Temp;Humidity;BMP_temperature;BMP_pressure;BME280_temperature;BME280_humidity;BME280_pressure;Samples;Min_cycle;Max_cycle;Signal;HPM_P1;HPM_P2
2023/06/21 00:00:23;;;;;;;;;;;13.90;64.10;;;;;;5013018;28;19906;-79
2023/06/21 00:02:50;;;;;;;;;;;13.80;64.00;;;;;;5012923;28;19917;-77
2023/06/21 00:05:16;;;;;;;;;;;13.80;64.00;;;;;;5012948;28;20267;-78
2023/06/21 00:07:42;;;;;;;;;;;13.80;64.00;;;;;;5012902;28;19912;-79
2023/06/21 00:10:08;;;;;;;;;;;13.90;64.80;;;;;;5012966;28;20309;-79
2023/06/21 00:12:34;;;;;;;;;;;13.80;64.20;;;;;;5002772;28;19952;-79
2023/06/21 00:15:00;;;;;;;;;;;13.80;64.20;;;;;;5016266;28;19913;-81
2023/06/21 00:17:25;;;;;;;;;;;13.80;64.30;;;;;;4999424;28;19909;-79
2023/06/21 00:19:54;;;;;;;;;;;13.80;64.30;;;;;;4995513;28;19916;-78
2023/06/21 00:22:21;;;;;;;;;;;13.80;64.30;;;;;;4996282;28;20011;-78
2023/06/21 00:24:51;;;;;;;;;;;13.70;64.30;;;;;;5012888;28;19912;-76
2023/06/21 00:27:19;;;;;;;;;;;13.70;64.30;;;;;;5013099;28;19905;-79
2023/06/21 00:29:45;;;;;;;;;;;13.70;64.50;;;;;;5012614;28;19906;-80
2023/06/21 00:32:10;;;;;;;;;;;13.70;64.50;;;;;;5012579;28;19917;-79
2023/06/21 00:34:36;;;;;;;;;;;13.70;64.70;;;;;;5013425;28;19916;-76
2023/06/21 00:37:05;;;;;;;;;;;13.60;64.70;;;;;;5015198;28;19912;-79
2023/06/21 00:39:30;;;;;;;;;;;13.60;64.80;;;;;;5014517;28;20016;-80
2023/06/21 00:41:56;;;;;;;;;;;13.60;65.00;;;;;;5012372;28;20024;-78
2023/06/21 00:44:22;;;;;;;;;;;13.60;65.20;;;;;;5012703;28;20290;-78
2023/06/21 00:46:48;;;;;;;;;;;13.50;65.20;;;;;;5014687;28;20353;-78
2023/06/21 00:49:14;;;;;;;;;;;13.60;65.30;;;;;;4998807;28;19952;-79
2023/06/21 00:51:41;;;;;;;;;;;13.50;65.20;;;;;;5019153;28;19906;-79
2023/06/21 00:54:07;;;;;;;;;;;13.60;65.20;;;;;;5023178;28;19916;-78
2023/06/21 00:56:35;;;;;;;;;;;13.60;65.10;;;;;;4998867;28;19926;-78
2023/06/21 00:59:04;;;;;;;;;;;13.60;65.10;;;;;;5016752;28;20367;-78
2023/06/21 01:01:30;;;;;;;;;;;13.60;65.10;;;;;;5013896;28;20375;-79
2023/06/21 01:03:57;;;;;;;;;;;13.60;65.20;;;;;;5016587;28;19955;-78
2023/06/21 01:06:33;;;;;;;;;;;13.60;65.20;;;;;;4998671;28;19917;-79
2023/06/21 01:09:05;;;;;;;;;;;13.60;65.20;;;;;;5016498;28;19921;-78
2023/06/21 01:11:32;;;;;;;;;;;13.60;65.20;;;;;;5013655;28;19909;-78
2023/06/21 01:14:01;;;;;;;;;;;13.60;65.10;;;;;;5016099;28;19909;-79
2023/06/21 01:16:33;;;;;;;;;;;13.60;65.00;;;;;;5016241;28;19913;-78
2023/06/21 01:19:01;;;;;;;;;;;13.60;65.00;;;;;;5016191;28;19959;-79
2023/06/21 01:21:28;;;;;;;;;;;13.60;65.10;;;;;;5015727;28;20297;-79
2023/06/21 01:24:07;;;;;;;;;;;13.60;65.20;;;;;;5016191;28;19913;-78
2023/06/21 01:26:47;;;;;;;;;;;13.60;65.20;;;;;;5010001;28;19905;-79
2023/06/21 01:29:25;;;;;;;;;;;13.70;65.30;;;;;;4998272;28;19913;-79
2023/06/21 01:31:52;;;;;;;;;;;13.60;65.30;;;;;;5015572;28;19917;-77
2023/06/21 01:34:18;;;;;;;;;;;13.70;65.40;;;;;;5015632;28;19909;-79
2023/06/21 01:36:44;;;;;;;;;;;13.70;65.40;;;;;;5015619;28;19959;-79
2023/06/21 01:39:09;;;;;;;;;;;13.70;65.50;;;;;;5015779;28;20304;-78
2023/06/21 01:41:39;;;;;;;;;;;13.70;65.40;;;;;;5015540;28;19914;-79
2023/06/21 01:44:09;;;;;;;;;;;13.80;65.30;;;;;;5016108;28;19956;-80
2023/06/21 01:46:35;;;;;;;;;;;13.80;65.30;;;;;;5015895;28;20355;-78
2023/06/21 01:49:02;;;;;;;;;;;13.90;65.30;;;;;;5015469;28;19915;-79
2023/06/21 01:51:28;;;;;;;;;;;13.90;65.20;;;;;;5014081;28;19913;-79
2023/06/21 01:53:55;;;;;;;;;;;14.00;65.10;;;;;;5008277;28;20327;-78
2023/06/21 01:56:21;;;;;;;;;;;14.00;65.00;;;;;;5015682;28;19960;-79
2023/06/21 01:58:48;;;;;;;;;;;14.10;65.00;;;;;;5017278;28;20003;-77
2023/06/21 02:01:15;;;;;;;;;;;14.20;65.00;;;;;;5017701;28;19909;-77
2023/06/21 02:03:43;;;;;;;;;;;14.30;65.00;;;;;;5016616;28;20271;-78
2023/06/21 02:06:11;;;;;;;;;;;14.30;64.90;;;;;;5017648;28;19912;-78
2023/06/21 02:08:37;;;;;;;;;;;14.40;65.30;;;;;;5020999;28;19909;-76
2023/06/21 02:11:03;;;;;;;;;;;14.40;65.50;;;;;;5019480;28;19928;-78
2023/06/21 02:13:29;;;;;;;;;;;14.40;65.30;;;;;;5018193;28;19905;-79
2023/06/21 02:15:54;;;;;;;;;;;14.50;65.40;;;;;;4998695;28;19905;-79
2023/06/21 02:18:24;;;;;;;;;;;14.50;65.40;;;;;;5001004;28;19956;-79
2023/06/21 02:20:50;;;;;;;;;;;14.60;65.60;;;;;;5014414;28;19920;-79
2023/06/21 02:23:15;;;;;;;;;;;14.70;65.90;;;;;;5012141;28;20467;-80
2023/06/21 02:25:41;;;;;;;;;;;14.70;65.90;;;;;;5014880;28;19952;-80
2023/06/21 02:28:07;;;;;;;;;;;14.70;66.00;;;;;;5014856;28;19909;-78
2023/06/21 02:30:32;;;;;;;;;;;14.80;66.20;;;;;;5014440;28;19977;-78
2023/06/21 02:32:58;;;;;;;;;;;14.80;66.50;;;;;;5014935;28;19905;-79
2023/06/21 02:35:24;;;;;;;;;;;14.80;66.40;;;;;;5015748;28;19905;-79
2023/06/21 02:37:50;;;;;;;;;;;14.80;66.80;;;;;;5015441;28;19967;-78
2023/06/21 02:40:15;;;;;;;;;;;14.90;66.80;;;;;;5016132;28;19913;-78
2023/06/21 02:42:41;;;;;;;;;;;14.90;67.10;;;;;;5016309;28;19965;-78
2023/06/21 02:45:07;;;;;;;;;;;15.00;67.30;;;;;;5014515;28;19950;-78
2023/06/21 02:47:33;;;;;;;;;;;15.00;67.70;;;;;;4997324;28;19905;-80
2023/06/21 02:49:59;;;;;;;;;;;15.10;67.70;;;;;;4997032;28;19905;-78
2023/06/21 02:52:25;;;;;;;;;;;15.10;67.50;;;;;;5014282;28;19960;-77
2023/06/21 02:54:53;;;;;;;;;;;15.20;67.70;;;;;;5014178;28;20284;-79
2023/06/21 02:57:19;;;;;;;;;;;15.30;67.90;;;;;;5014044;28;19962;-79
2023/06/21 02:59:45;;;;;;;;;;;15.40;67.90;;;;;;5014523;28;19906;-79
2023/06/21 03:02:11;;;;;;;;;;;15.50;68.00;;;;;;5014150;28;19925;-78
2023/06/21 03:04:37;;;;;;;;;;;15.70;67.90;;;;;;5014058;28;19916;-79
2023/06/21 03:07:05;;;;;;;;;;;15.80;67.70;;;;;;4996747;28;20267;-78
2023/06/21 03:09:31;;;;;;;;;;;16.00;67.60;;;;;;5013298;28;19910;-80
2023/06/21 03:11:57;;;;;;;;;;;16.20;67.60;;;;;;5013939;28;20294;-79
2023/06/21 03:14:23;;;;;;;;;;;16.40;67.20;;;;;;5013558;28;19905;-79
2023/06/21 03:16:49;;;;;;;;;;;16.60;67.00;;;;;;5013779;28;19943;-79
2023/06/21 03:19:15;;;;;;;;;;;16.70;66.80;;;;;;5013736;28;19949;-79
2023/06/21 03:21:41;;;;;;;;;;;16.70;66.80;;;;;;5013549;28;19952;-78
2023/06/21 03:24:07;;;;;;;;;;;16.60;66.50;;;;;;4996087;28;19911;-78
2023/06/21 03:26:34;;;;;;;;;;;16.60;66.50;;;;;;5014249;28;19905;-80
2023/06/21 03:29:02;;;;;;;;;;;16.60;66.70;;;;;;5014176;28;20000;-78
2023/06/21 03:31:28;;;;;;;;;;;16.60;66.80;;;;;;5013608;28;19909;-79
2023/06/21 03:33:53;;;;;;;;;;;16.70;66.70;;;;;;5013378;28;19913;-81
2023/06/21 03:36:19;;;;;;;;;;;16.70;65.90;;;;;;5013112;28;19996;-79
2023/06/21 03:38:45;;;;;;;;;;;16.70;65.60;;;;;;5013136;28;19944;-79
2023/06/21 03:41:10;;;;;;;;;;;16.70;65.20;;;;;;5013221;28;19917;-78
2023/06/21 03:43:36;;;;;;;;;;;16.60;64.80;;;;;;5013461;28;20355;-79
2023/06/21 03:46:02;;;;;;;;;;;16.70;64.80;;;;;;5013163;28;20282;-79
2023/06/21 03:48:28;;;;;;;;;;;16.70;64.80;;;;;;5013534;28;20367;-78
2023/06/21 03:50:54;;;;;;;;;;;16.70;64.90;;;;;;4995777;28;19905;-78
2023/06/21 03:53:19;;;;;;;;;;;16.70;65.10;;;;;;5014146;28;20305;-79
2023/06/21 03:55:45;;;;;;;;;;;16.70;65.30;;;;;;5013518;28;19905;-79
2023/06/21 03:58:14;;;;;;;;;;;16.70;65.50;;;;;;5014282;28;19920;-77
2023/06/21 04:00:39;;;;;;;;;;;16.80;66.00;;;;;;5016153;28;19956;-78
2023/06/21 04:03:05;;;;;;;;;;;16.80;66.10;;;;;;5014177;28;20334;-76
2023/06/21 04:05:31;;;;;;;;;;;16.80;66.30;;;;;;5013545;28;19909;-78
2023/06/21 04:07:58;;;;;;;;;;;16.80;66.60;;;;;;5012871;28;20285;-78
2023/06/21 04:10:24;;;;;;;;;;;16.80;66.70;;;;;;5012836;28;19905;-79
2023/06/21 04:12:50;;;;;;;;;;;16.80;66.70;;;;;;5012965;28;20274;-80
2023/06/21 04:15:16;;;;;;;;;;;16.70;66.90;;;;;;5013070;28;19963;-79
2023/06/21 04:17:43;;;;;;;;;;;16.70;67.80;;;;;;5013747;28;19905;-78
2023/06/21 04:20:10;;;;;;;;;;;16.60;67.20;;;;;;4996771;28;19906;-79
2023/06/21 04:22:40;;;;;;;;;;;16.70;67.40;;;;;;5013124;28;19918;-78
2023/06/21 04:25:06;;;;;;;;;;;16.70;67.60;;;;;;5012964;28;19909;-78
2023/06/21 04:27:32;;;;;;;;;;;16.70;66.60;;;;;;4995257;28;20043;-79
2023/06/21 04:29:59;;;;;;;;;;;16.60;66.40;;;;;;4994938;28;20278;-79
2023/06/21 04:32:24;;;;;;;;;;;16.60;66.60;;;;;;5012736;28;19909;-79
2023/06/21 04:34:50;;;;;;;;;;;16.60;66.20;;;;;;4994982;28;19912;-78
2023/06/21 04:37:18;;;;;;;;;;;16.60;66.70;;;;;;5012599;28;19909;-79
2023/06/21 04:39:43;;;;;;;;;;;16.60;65.90;;;;;;5013514;28;19912;-79
2023/06/21 04:42:09;;;;;;;;;;;16.60;65.70;;;;;;5014288;28;19914;-79
2023/06/21 04:44:35;;;;;;;;;;;16.70;65.60;;;;;;5016201;28;19906;-78
2023/06/21 04:47:01;;;;;;;;;;;16.90;65.10;;;;;;5018550;28;19979;-78
2023/06/21 04:49:26;;;;;;;;;;;17.00;64.60;;;;;;5012715;28;19963;-78
2023/06/21 04:51:53;;;;;;;;;;;17.10;64.40;;;;;;4994579;28;19905;-78
2023/06/21 04:54:22;;;;;;;;;;;17.20;64.10;;;;;;5012465;28;20016;-78
2023/06/21 04:56:49;;;;;;;;;;;17.20;63.10;;;;;;5012075;28;19952;-80
2023/06/21 04:59:16;;;;;;;;;;;17.20;62.90;;;;;;5012753;28;19906;-80
2023/06/21 05:01:41;;;;;;;;;;;17.30;62.40;;;;;;5012758;28;19917;-79
2023/06/21 05:04:07;;;;;;;;;;;17.50;61.50;;;;;;5012270;28;19931;-80
2023/06/21 05:06:32;;;;;;;;;;;17.60;60.60;;;;;;5012784;28;20362;-78
2023/06/21 05:08:58;;;;;;;;;;;17.70;59.70;;;;;;5015234;28;20317;-80
2023/06/21 05:11:24;;;;;;;;;;;17.80;59.50;;;;;;5015333;28;20284;-80
2023/06/21 05:13:49;;;;;;;;;;;17.80;59.60;;;;;;5013139;28;19959;-79
2023/06/21 05:16:15;;;;;;;;;;;18.00;59.80;;;;;;5016156;28;19906;-79
2023/06/21 05:18:42;;;;;;;;;;;18.10;58.40;;;;;;5014414;28;20285;-79
2023/06/21 05:21:07;;;;;;;;;;;18.30;58.70;;;;;;5012204;28;20291;-79
2023/06/21 05:23:33;;;;;;;;;;;18.50;57.50;;;;;;4988795;28;20006;-78
2023/06/21 05:25:59;;;;;;;;;;;18.70;55.30;;;;;;5011966;28;20342;-78
2023/06/21 05:28:24;;;;;;;;;;;18.80;53.20;;;;;;5002205;28;20004;-78
2023/06/21 05:30:51;;;;;;;;;;;19.10;53.90;;;;;;5012248;28;20025;-79
2023/06/21 05:33:17;;;;;;;;;;;20.00;52.30;;;;;;5014698;28;19912;-78
2023/06/21 05:35:43;;;;;;;;;;;20.40;49.60;;;;;;5018323;28;19905;-79
2023/06/21 05:38:08;;;;;;;;;;;19.90;49.50;;;;;;5018293;28;20306;-79
2023/06/21 05:40:34;;;;;;;;;;;19.40;50.80;;;;;;5017545;28;19912;-78
2023/06/21 05:43:01;;;;;;;;;;;19.60;51.90;;;;;;5018025;28;19952;-76
2023/06/21 05:45:30;;;;;;;;;;;20.20;52.00;;;;;;5016514;28;19967;-77
2023/06/21 05:47:58;;;;;;;;;;;20.30;50.50;;;;;;5015613;28;19909;-76
2023/06/21 05:50:24;;;;;;;;;;;20.00;50.80;;;;;;5015767;28;20342;-75
2023/06/21 05:52:50;;;;;;;;;;;19.60;51.40;;;;;;5015693;28;19940;-77
2023/06/21 05:55:15;;;;;;;;;;;19.20;51.70;;;;;;5015060;28;19910;-78
2023/06/21 05:57:41;;;;;;;;;;;19.20;52.00;;;;;;5015920;28;19928;-78
2023/06/21 06:00:09;;;;;;;;;;;20.00;51.90;;;;;;5023080;28;20014;-76
2023/06/21 06:02:35;;;;;;;;;;;21.00;48.90;;;;;;5015459;28;20096;-77
2023/06/21 06:05:01;;;;;;;;;;;22.50;45.50;;;;;;5015329;28;19905;-78
2023/06/21 06:07:26;;;;;;;;;;;23.60;42.60;;;;;;5015131;28;20278;-76
2023/06/21 06:09:52;;;;;;;;;;;23.60;41.90;;;;;;5014938;28;20266;-76
2023/06/21 06:12:21;;;;;;;;;;;24.20;42.50;;;;;;5015002;28;19905;-76
2023/06/21 06:14:47;;;;;;;;;;;25.80;42.40;;;;;;5015075;28;19964;-77
2023/06/21 06:17:12;;;;;;;;;;;27.40;40.50;;;;;;5014500;28;20279;-75
2023/06/21 06:19:38;;;;;;;;;;;28.40;39.50;;;;;;4996995;28;19937;-75
2023/06/21 06:22:04;;;;;;;;;;;29.30;36.20;;;;;;5014757;28;20339;-76
2023/06/21 06:24:30;;;;;;;;;;;29.80;35.80;;;;;;5014471;28;19964;-77
2023/06/21 06:26:55;;;;;;;;;;;30.00;34.50;;;;;;4997028;28;19916;-77
2023/06/21 06:29:22;;;;;;;;;;;30.70;34.90;;;;;;5014589;28;19909;-77
2023/06/21 06:31:48;;;;;;;;;;;;;;;;;;5014388;28;20391;-77
2023/06/21 06:34:14;;;;;;;;;;;31.80;35.20;;;;;;5014025;28;19917;-76
2023/06/21 06:36:40;;;;;;;;;;;;;;;;;;5014366;28;19905;-77
2023/06/21 06:39:06;;;;;;;;;;;31.50;32.20;;;;;;4996822;28;20286;-76
2023/06/21 06:41:32;;;;;;;;;;;;;;;;;;5014245;28;20298;-77
2023/06/21 06:43:58;;;;;;;;;;;;;;;;;;4995655;28;19909;-77
2023/06/21 06:46:23;;;;;;;;;;;32.80;32.10;;;;;;5014436;28;20048;-77
2023/06/21 06:48:49;;;;;;;;;;;;;;;;;;5014629;28;20347;-76
2023/06/21 06:51:15;;;;;;;;;;;35.20;29.20;;;;;;5014155;28;19975;-76
2023/06/21 06:53:42;;;;;;;;;;;34.50;29.70;;;;;;5014451;28;19909;-77
2023/06/21 06:56:07;;;;;;;;;;;34.70;30.00;;;;;;4996368;28;20338;-78
2023/06/21 06:58:35;;;;;;;;;;;35.30;29.00;;;;;;5013938;28;19906;-77
2023/06/21 07:01:03;;;;;;;;;;;34.20;28.80;;;;;;5013628;28;20331;-77
2023/06/21 07:03:28;;;;;;;;;;;32.50;29.50;;;;;;4996364;28;19911;-76
2023/06/21 07:05:54;;;;;;;;;;;32.00;30.30;;;;;;5013736;28;19920;-77
2023/06/21 07:08:20;;;;;;;;;;;32.40;30.00;;;;;;5013083;28;20355;-78
2023/06/21 07:10:45;;;;;;;;;;;32.10;30.00;;;;;;5013886;28;19913;-77
2023/06/21 07:13:11;;;;;;;;;;;32.00;30.20;;;;;;5012238;28;19909;-77
2023/06/21 07:15:37;;;;;;;;;;;33.30;30.60;;;;;;5013827;28;19909;-78
2023/06/21 07:18:02;;;;;;;;;;;34.60;29.80;;;;;;5013429;28;19955;-77
2023/06/21 07:20:28;;;;;;;;;;;35.20;28.90;;;;;;4995836;28;19913;-76
2023/06/21 07:22:55;;;;;;;;;;;35.30;29.00;;;;;;4995768;28;19917;-77
2023/06/21 07:25:21;;;;;;;;;;;34.90;28.60;;;;;;5014885;28;19941;-77
2023/06/21 07:27:47;;;;;;;;;;;34.50;28.20;;;;;;5014046;28;19931;-79
2023/06/21 07:30:12;;;;;;;;;;;33.60;28.90;;;;;;5013273;28;19933;-77
2023/06/21 07:32:38;;;;;;;;;;;34.00;29.20;;;;;;4995558;28;19929;-76
2023/06/21 07:35:04;;;;;;;;;;;36.10;29.00;;;;;;4995479;28;19905;-78
2023/06/21 07:37:30;;;;;;;;;;;36.50;28.60;;;;;;5013220;28;19905;-76
2023/06/21 07:39:56;;;;;;;;;;;36.70;28.00;;;;;;5012598;28;19939;-77
2023/06/21 07:42:22;;;;;;;;;;;37.00;27.60;;;;;;5013223;28;20282;-78
2023/06/21 07:44:50;;;;;;;;;;;37.00;27.00;;;;;;4996328;28;19910;-77
2023/06/21 07:47:16;;;;;;;;;;;35.80;27.60;;;;;;5013711;28;20389;-79
2023/06/21 07:49:42;;;;;;;;;;;36.10;28.00;;;;;;5013688;28;19988;-78
2023/06/21 07:52:08;;;;;;;;;;;36.50;27.70;;;;;;5013204;28;19996;-78
2023/06/21 07:54:33;;;;;;;;;;;35.80;27.80;;;;;;4995135;28;20374;-77
2023/06/21 07:56:59;;;;;;;;;;;35.50;28.20;;;;;;5012719;28;19963;-77
2023/06/21 07:59:25;;;;;;;;;;;34.80;28.30;;;;;;5012867;28;19987;-77
2023/06/21 08:01:50;;;;;;;;;;;35.40;28.40;;;;;;5012548;28;19917;-76
2023/06/21 08:04:16;;;;;;;;;;;36.20;28.10;;;;;;5012547;28;19909;-78
2023/06/21 08:06:42;;;;;;;;;;;35.80;28.00;;;;;;5013184;28;20114;-77
2023/06/21 08:09:07;;;;;;;;;;;36.30;28.10;;;;;;5012912;28;19910;-76
2023/06/21 08:11:33;;;;;;;;;;;37.30;27.60;;;;;;4998679;28;20374;-77
2023/06/21 08:13:59;;;;;;;;;;;37.60;27.60;;;;;;5013249;28;19913;-76
2023/06/21 08:16:24;;;;;;;;;;;37.70;27.80;;;;;;5012905;28;19939;-78
2023/06/21 08:18:51;;;;;;;;;;;38.50;27.50;;;;;;5013345;28;19912;-78
2023/06/21 08:21:16;;;;;;;;;;;37.70;27.10;;;;;;5015081;28;19967;-78
2023/06/21 08:23:42;;;;;;;;;;;37.10;27.20;;;;;;5014601;28;20322;-78
2023/06/21 08:26:08;;;;;;;;;;;36.80;27.30;;;;;;5013478;28;19906;-78
2023/06/21 08:28:34;;;;;;;;;;;36.00;27.60;;;;;;5022978;28;19909;-78
2023/06/21 08:30:59;;;;;;;;;;;35.50;28.10;;;;;;4996987;28;19953;-77
2023/06/21 08:33:25;;;;;;;;;;;36.20;27.90;;;;;;4995541;28;19905;-77
2023/06/21 08:35:51;;;;;;;;;;;36.90;27.90;;;;;;5013298;28;19929;-78
2023/06/21 08:38:16;;;;;;;;;;;37.30;27.50;;;;;;5012368;28;20124;-79
2023/06/21 08:40:42;;;;;;;;;;;35.30;26.60;;;;;;5012225;28;19909;-77
2023/06/21 08:43:08;;;;;;;;;;;33.40;27.80;;;;;;5012330;28;20379;-78
2023/06/21 08:45:34;;;;;;;;;;;33.70;28.30;;;;;;5012097;28;19972;-77
2023/06/21 08:48:03;;;;;;;;;;;35.40;28.30;;;;;;4994008;28;19910;-78
2023/06/21 08:50:29;;;;;;;;;;;37.40;28.10;;;;;;5012301;28;19905;-77
2023/06/21 08:52:57;;;;;;;;;;;37.70;27.30;;;;;;5012338;28;20004;-77
2023/06/21 08:55:24;;;;;;;;;;;38.00;27.10;;;;;;5012112;28;19913;-78
2023/06/21 08:57:56;;;;;;;;;;;38.40;27.00;;;;;;5012060;28;19946;-78
2023/06/21 09:00:26;;;;;;;;;;;38.30;26.50;;;;;;4994349;28;19921;-79
2023/06/21 09:02:54;;;;;;;;;;;37.20;27.00;;;;;;5012047;28;19917;-75
2023/06/21 09:05:26;;;;;;;;;;;36.00;27.50;;;;;;5012138;28;20362;-76
2023/06/21 09:07:53;;;;;;;;;;;35.90;28.00;;;;;;5016221;28;20001;-77
2023/06/21 09:10:20;;;;;;;;;;;36.60;28.20;;;;;;5000791;28;19912;-77
2023/06/21 09:12:48;;;;;;;;;;;37.30;27.30;;;;;;5016374;28;19909;-79
2023/06/21 09:15:14;;;;;;;;;;;36.60;27.30;;;;;;5016010;28;20317;-77
2023/06/21 09:17:39;;;;;;;;;;;36.10;27.00;;;;;;5015990;28;19905;-79
2023/06/21 09:20:06;;;;;;;;;;;35.70;27.20;;;;;;4998111;28;19909;-77
2023/06/21 09:22:32;;;;;;;;;;;36.10;27.70;;;;;;5015240;28;19928;-77
2023/06/21 09:24:58;;;;;;;;;;;37.40;27.30;;;;;;5015823;28;19909;-76
2023/06/21 09:27:24;;;;;;;;;;;38.00;27.20;;;;;;5015882;28;20355;-77
2023/06/21 09:29:50;;;;;;;;;;;37.70;27.00;;;;;;4998046;28;19948;-77
2023/06/21 09:32:15;;;;;;;;;;;37.90;26.80;;;;;;4998452;28;19967;-77
2023/06/21 09:34:42;;;;;;;;;;;38.50;26.60;;;;;;5015654;28;19917;-78
2023/06/21 09:37:07;;;;;;;;;;;37.80;26.50;;;;;;5015468;28;20004;-78
2023/06/21 09:39:33;;;;;;;;;;;38.00;26.90;;;;;;5014758;28;19960;-77
2023/06/21 09:41:58;;;;;;;;;;;38.20;26.50;;;;;;5015138;28;19981;-77
2023/06/21 09:44:24;;;;;;;;;;;38.00;26.50;;;;;;5015761;28;19906;-76
2023/06/21 09:46:57;;;;;;;;;;;37.60;26.60;;;;;;4997952;28;19905;-79
2023/06/21 09:49:25;;;;;;;;;;;36.80;26.60;;;;;;5015616;28;20275;-78
2023/06/21 09:51:51;;;;;;;;;;;36.10;27.00;;;;;;5015180;28;20425;-78
2023/06/21 09:54:17;;;;;;;;;;;35.70;27.20;;;;;;5015211;28;20004;-78
2023/06/21 09:56:42;;;;;;;;;;;35.00;27.50;;;;;;5014488;28;20302;-75
2023/06/21 09:59:22;;;;;;;;;;;34.60;27.40;;;;;;4997658;28;20285;-78
2023/06/21 10:01:49;;;;;;;;;;;34.50;27.30;;;;;;5015866;28;19917;-78
2023/06/21 10:04:16;;;;;;;;;;;34.80;27.60;;;;;;5014805;28;19905;-78
2023/06/21 10:06:54;;;;;;;;;;;35.30;27.50;;;;;;5015239;28;19936;-78
2023/06/21 10:09:20;;;;;;;;;;;35.80;27.00;;;;;;5014967;28;19955;-78
2023/06/21 10:11:46;;;;;;;;;;;35.60;26.90;;;;;;5014559;28;19944;-78
2023/06/21 10:14:19;;;;;;;;;;;36.20;27.20;;;;;;5014745;28;19910;-78
2023/06/21 10:16:46;;;;;;;;;;;36.80;27.20;;;;;;4983612;28;19952;-77
2023/06/21 10:19:11;;;;;;;;;;;37.00;26.90;;;;;;5014601;28;19910;-77
2023/06/21 10:21:37;;;;;;;;;;;36.70;27.00;;;;;;5014427;28;19925;-76
2023/06/21 10:24:04;;;;;;;;;;;36.30;26.80;;;;;;4996757;28;19905;-77
2023/06/21 10:26:31;;;;;;;;;;;36.10;27.00;;;;;;5013882;28;19940;-77
2023/06/21 10:28:58;;;;;;;;;;;36.20;27.10;;;;;;5014487;28;19913;-78
2023/06/21 10:31:25;;;;;;;;;;;36.30;26.60;;;;;;4996783;28;20326;-77
2023/06/21 10:33:53;;;;;;;;;;;34.60;26.60;;;;;;5014471;28;19911;-77
2023/06/21 10:36:19;;;;;;;;;;;;;;;;;;4996887;28;20282;-76
2023/06/21 10:38:45;;;;;;;;;;;;;;;;;;5014323;28;19999;-76
2023/06/21 10:41:11;;;;;;;;;;;30.40;28.00;;;;;;4996098;28;19920;-78
2023/06/21 10:43:37;;;;;;;;;;;27.70;30.00;;;;;;5014447;28;19946;-79
2023/06/21 10:46:03;;;;;;;;;;;;;;;;;;5013567;28;20281;-78
2023/06/21 10:48:31;;;;;;;;;;;26.80;32.20;;;;;;5015594;28;19906;-77
2023/06/21 10:50:57;;;;;;;;;;;25.30;33.10;;;;;;5016003;28;19913;-76
2023/06/21 10:53:23;;;;;;;;;;;24.70;34.20;;;;;;5014462;28;19912;-77
2023/06/21 10:55:49;;;;;;;;;;;24.40;34.20;;;;;;4996624;28;19905;-77
2023/06/21 10:58:15;;;;;;;;;;;24.00;34.60;;;;;;5012891;28;19917;-77
2023/06/21 11:00:41;;;;;;;;;;;;;;;;;;5013065;28;19909;-78
2023/06/21 11:03:12;;;;;;;;;;;;;;;;;;4999501;28;19923;-77
2023/06/21 11:05:38;;;;;;;;;;;;;;;;;;5013317;28;19945;-77
2023/06/21 11:08:05;;;;;;;;;;;;;;;;;;5012988;28;20374;-76
2023/06/21 11:10:31;;;;;;;;;;;;;;;;;;5013385;28;19909;-79
2023/06/21 11:12:57;;;;;;;;;;;;;;;;;;5012875;28;19909;-76
2023/06/21 11:15:23;;;;;;;;;;;;;;;;;;4995631;28;19913;-78
2023/06/21 11:17:49;;;;;;;;;;;;;;;;;;4995250;28;19916;-77
2023/06/21 11:20:15;;;;;;;;;;;;;;;;;;5013102;28;19932;-77
2023/06/21 11:22:53;;;;;;;;;;;23.60;36.20;;;;;;5012978;28;19924;-78
2023/06/21 11:25:19;;;;;;;;;;;23.00;37.90;;;;;;5013080;28;19912;-77
2023/06/21 11:28:04;;;;;;;;;;;22.90;37.80;;;;;;4995143;28;19905;-76
2023/06/21 11:30:31;;;;;;;;;;;22.80;37.80;;;;;;5011499;28;19913;-76
2023/06/21 11:32:57;;;;;;;;;;;;;;;;;;4995054;28;19916;-77
2023/06/21 11:35:23;;;;;;;;;;;;;;;;;;5012507;28;19912;-76
2023/06/21 11:37:50;;;;;;;;;;;;;;;;;;5012668;28;19905;-77
2023/06/21 11:40:18;;;;;;;;;;;;;;;;;;5012709;28;19905;-78
2023/06/21 11:42:44;;;;;;;;;;;;;;;;;;5013781;28;20363;-77
2023/06/21 11:45:10;;;;;;;;;;;;;;;;;;4995593;28;19959;-76
2023/06/21 11:47:35;;;;;;;;;;;;;;;;;;5013124;28;19953;-78
2023/06/21 11:50:03;;;;;;;;;;;;;;;;;;5012540;28;19921;-77
2023/06/21 11:52:29;;;;;;;;;;;;;;;;;;4994487;28;19955;-77
2023/06/21 11:54:55;;;;;;;;;;;;;;;;;;5012298;28;19952;-77
2023/06/21 11:57:21;;;;;;;;;;;;;;;;;;4966844;28;1323893;-77
2023/06/21 11:59:47;;;;;;;;;;;;;;;;;;4995415;28;19955;-78
2023/06/21 12:02:13;;;;;;;;;;;;;;;;;;5012971;28;20009;-77
2023/06/21 12:04:39;;;;;;;;;;;;;;;;;;4994851;28;19953;-77
2023/06/21 12:07:05;;;;;;;;;;;;;;;;;;4996465;28;19905;-77
2023/06/21 12:09:31;;;;;;;;;;;;;;;;;;5013011;28;19909;-78
2023/06/21 12:11:57;;;;;;;;;;;;;;;;;;5012817;28;19913;-76
2023/06/21 12:14:23;;;;;;;;;;;;;;;;;;4994795;28;19985;-78
2023/06/21 12:16:49;;;;;;;;;;;;;;;;;;5012852;28;19905;-76
2023/06/21 12:19:15;;;;;;;;;;;;;;;;;;5012668;28;20355;-76
2023/06/21 12:21:42;;;;;;;;;;;;;;;;;;5011930;28;20076;-77
2023/06/21 12:24:08;;;;;;;;;;;;;;;;;;5012612;28;20251;-77
2023/06/21 12:26:34;;;;;;;;;;;;;;;;;;5012490;28;19906;-76
2023/06/21 12:29:00;;;;;;;;;;;;;;;;;;5012779;28;19913;-77
2023/06/21 12:31:29;;;;;;;;;;;;;;;;;;5012868;28;19911;-77
2023/06/21 12:34:00;;;;;;;;;;;;;;;;;;5012849;28;19960;-77
2023/06/21 12:36:28;;;;;;;;;;;;;;;;;;4994904;28;19917;-78
2023/06/21 12:38:54;;;;;;;;;;;;;;;;;;5012685;28;19959;-77
2023/06/21 12:41:19;;;;;;;;;;;;;;;;;;5011319;28;19921;-79
2023/06/21 12:43:45;;;;;;;;;;;;;;;;;;5012023;28;19909;-77
2023/06/21 12:46:11;;;;;;;;;;;;;;;;;;5012209;28;19909;-78
2023/06/21 12:48:37;;;;;;;;;;;;;;;;;;4994566;28;20067;-78
2023/06/21 12:51:03;;;;;;;;;;;;;;;;;;5012073;28;19958;-76
2023/06/21 12:53:29;;;;;;;;;;;;;;;;;;5012268;28;19905;-77
2023/06/21 12:55:56;;;;;;;;;;;;;;;;;;5012277;28;19932;-78
2023/06/21 12:58:22;;;;;;;;;;;;;;;;;;5017450;28;19937;-77
2023/06/21 13:00:48;;;;;;;;;;;;;;;;;;5018841;28;19987;-78
2023/06/21 13:03:14;;;;;;;;;;;;;;;;;;4997818;28;19913;-77
2023/06/21 13:05:40;;;;;;;;;;;;;;;;;;5012402;28;20004;-76
2023/06/21 13:08:06;;;;;;;;;;;;;;;;;;5012160;28;19905;-76
2023/06/21 13:10:31;;;;;;;;;;;;;;;;;;5012167;28;19917;-78
2023/06/21 13:12:57;;;;;;;;;;;;;;;;;;5011823;28;19910;-76
2023/06/21 13:15:23;;;;;;;;;;;;;;;;;;5011939;28;19912;-77
2023/06/21 13:17:49;;;;;;;;;;;;;;;;;;5011491;28;19909;-77
2023/06/21 13:20:16;;;;;;;;;;;;;;;;;;5012408;28;20351;-78
2023/06/21 13:22:42;;;;;;;;;;;;;;;;;;5011943;28;19917;-76
2023/06/21 13:25:08;;;;;;;;;;;;;;;;;;5012044;28;19906;-76
2023/06/21 13:27:35;;;;;;;;;;;;;;;;;;5012083;28;19905;-77
2023/06/21 13:30:03;;;;;;;;;;;;;;;;;;5011954;28;19905;-77
2023/06/21 13:32:29;;;;;;;;;;;;;;;;;;5011820;28;20004;-78
2023/06/21 13:34:55;;;;;;;;;;;;;;;;;;5011428;28;19916;-76
2023/06/21 13:37:21;;;;;;;;;;;;;;;;;;5013080;28;19925;-77
2023/06/21 13:39:47;;;;;;;;;;;22.60;38.70;;;;;;5011947;28;20009;-77
2023/06/21 13:42:13;;;;;;;;;;;21.90;39.70;;;;;;5011674;28;19917;-78
2023/06/21 13:44:38;;;;;;;;;;;22.20;40.00;;;;;;4994234;28;19913;-78
2023/06/21 13:47:04;;;;;;;;;;;22.40;39.90;;;;;;5011312;28;19987;-78
2023/06/21 13:49:30;;;;;;;;;;;22.50;39.60;;;;;;5010867;28;19905;-76
2023/06/21 13:51:55;;;;;;;;;;;22.60;39.20;;;;;;4993570;28;19913;-78
2023/06/21 13:54:24;;;;;;;;;;;22.50;39.00;;;;;;4996210;28;20005;-76
2023/06/21 13:56:49;;;;;;;;;;;22.30;39.10;;;;;;5014945;28;19982;-77
2023/06/21 13:59:15;;;;;;;;;;;23.40;39.00;;;;;;5015014;28;19909;-77
2023/06/21 14:01:40;;;;;;;;;;;24.20;38.50;;;;;;5014911;28;19914;-77
2023/06/21 14:04:06;;;;;;;;;;;25.30;37.90;;;;;;5015322;28;19994;-78
2023/06/21 14:06:32;;;;;;;;;;;25.40;36.80;;;;;;5015337;28;20322;-76
2023/06/21 14:08:57;;;;;;;;;;;25.60;36.80;;;;;;5014428;28;20385;-77
2023/06/21 14:11:23;;;;;;;;;;;26.20;36.00;;;;;;5014623;28;19916;-78
2023/06/21 14:13:49;;;;;;;;;;;26.70;36.20;;;;;;4997521;28;19913;-79
2023/06/21 14:16:15;;;;;;;;;;;27.40;36.00;;;;;;5016049;28;19910;-75
2023/06/21 14:18:40;;;;;;;;;;;27.40;34.30;;;;;;4998201;28;19953;-78
2023/06/21 14:21:08;;;;;;;;;;;27.40;34.60;;;;;;5014764;28;19913;-78
2023/06/21 14:23:34;;;;;;;;;;;27.00;34.10;;;;;;5014557;28;19933;-77
2023/06/21 14:26:00;;;;;;;;;;;25.90;34.00;;;;;;5014720;28;19905;-77
2023/06/21 14:28:26;;;;;;;;;;;24.80;34.90;;;;;;5014185;28;19909;-78
2023/06/21 14:30:51;;;;;;;;;;;24.40;35.80;;;;;;4997318;28;19936;-77
2023/06/21 14:33:17;;;;;;;;;;;24.60;36.20;;;;;;4996812;28;20359;-78
2023/06/21 14:35:43;;;;;;;;;;;25.10;36.00;;;;;;4996854;28;19910;-78